Time;durP1;ratioP1;P1;durP2;ratioP2;P2;SDS_P1;SDS_P2;PMS_P1;PMS_P2;Temp;Humidity;BMP_temperature;BMP_pressure;BME280_temperature;BME280_humidity;BME280_pressure;Samples;Min_cycle;Max_cycle;Signal;HPM_P1;HPM_P2
2023/05/04 00:00:50;;;;;;;10.03;6.27;;;;;;;;;;5073243;28;20249;-68
2023/05/04 00:03:16;;;;;;;10.63;6.53;;;;;;;;;;5073066;28;20667;-68
2023/05/04 00:05:42;;;;;;;9.43;5.63;;;;;;;;;;5074768;28;20217;-67
2023/05/04 00:08:08;;;;;;;9.33;6.23;;;;;;;;;;5077083;28;20184;-68
2023/05/04 00:10:34;;;;;;;8.83;6.00;;;;;;;;;;5059035;28;20186;-67
2023/05/04 00:13:00;;;;;;;9.37;6.20;;;;;;;;;;5076940;28;20208;-66
2023/05/04 00:15:27;;;;;;;12.57;6.10;;;;;;;;;;5058770;28;20194;-67
2023/05/04 00:17:53;;;;;;;9.87;5.83;;;;;;;;;;5077283;28;20186;-67
2023/05/04 00:20:19;;;;;;;14.43;6.53;;;;;;;;;;5076780;28;20193;-68
2023/05/04 00:22:45;;;;;;;10.27;6.33;;;;;;;;;;5076782;28;20271;-68
2023/05/04 00:25:11;;;;;;;9.10;6.13;;;;;;;;;;5076581;28;20208;-66
2023/05/04 00:27:37;;;;;;;10.80;6.30;;;;;;;;;;5076664;28;20224;-68
2023/05/04 00:30:03;;;;;;;9.53;6.50;;;;;;;;;;5076769;28;20204;-69
2023/05/04 00:32:29;;;;;;;12.07;6.40;;;;;;;;;;5076451;28;20604;-67
2023/05/04 00:34:55;;;;;;;14.37;6.67;;;;;;;;;;5076718;28;20281;-67
2023/05/04 00:37:21;;;;;;;13.20;6.23;;;;;;;;;;5076439;28;20200;-67
2023/05/04 00:39:47;;;;;;;8.33;6.10;;;;;;;;;;5076500;28;20174;-66
2023/05/04 00:42:13;;;;;;;18.07;6.33;;;;;;;;;;5058345;28;20178;-68
2023/05/04 00:44:40;;;;;;;9.90;6.40;;;;;;;;;;5076366;28;20193;-66
2023/05/04 00:47:07;;;;;;;16.87;6.47;;;;;;;;;;5076495;28;20587;-66
2023/05/04 00:49:33;;;;;;;14.43;6.97;;;;;;;;;;5058119;28;20227;-66
2023/05/04 00:52:00;;;;;;;11.07;6.50;;;;;;;;;;5058116;28;20320;-67
2023/05/04 00:54:27;;;;;;;10.83;7.03;;;;;;;;;;5058008;28;20217;-67
2023/05/04 00:56:53;;;;;;;14.77;7.10;;;;;;;;;;5058076;28;20174;-67
2023/05/04 00:59:19;;;;;;;9.83;7.10;;;;;;;;;;5058035;28;20192;-68
2023/05/04 01:01:45;;;;;;;17.30;6.53;;;;;;;;;;5057984;28;20608;-68
2023/05/04 01:04:11;;;;;;;12.23;6.77;;;;;;;;;;5075718;28;20598;-67
2023/05/04 01:06:46;;;;;;;10.43;7.47;;;;;;;;;;5076123;28;20216;-68
2023/05/04 01:09:36;;;;;;;19.83;6.83;;;;;;;;;;5076327;28;20228;-69
2023/05/04 01:12:05;;;;;;;10.83;7.00;;;;;;;;;;5038833;28;20221;-68
2023/05/04 01:14:32;;;;;;;15.03;6.70;;;;;;;;;;5075991;28;20217;-67
2023/05/04 01:16:59;;;;;;;13.23;6.90;;;;;;;;;;5075380;28;20181;-68
2023/05/04 01:19:27;;;;;;;9.90;7.30;;;;;;;;;;5057745;28;20181;-68
2023/05/04 01:21:53;;;;;;;11.60;6.67;;;;;;;;;;5076222;28;20170;-68
2023/05/04 01:24:20;;;;;;;11.53;7.33;;;;;;;;;;5075774;28;20722;-67
2023/05/04 01:26:46;;;;;;;10.07;6.47;;;;;;;;;;5076159;28;20227;-68
2023/05/04 01:29:17;;;;;;;10.43;7.27;;;;;;;;;;5057854;28;20593;-70
2023/05/04 01:31:44;;;;;;;13.60;6.47;;;;;;;;;;5057633;28;20204;-69
2023/05/04 01:34:10;;;;;;;12.10;6.57;;;;;;;;;;5075872;28;20202;-69
2023/05/04 01:36:37;;;;;;;7.87;6.13;;;;;;;;;;5057476;28;20673;-68
2023/05/04 01:39:03;;;;;;;12.67;7.10;;;;;;;;;;5075157;28;20174;-68
2023/05/04 01:41:29;;;;;;;11.30;6.77;;;;;;;;;;5075603;28;20170;-66
2023/05/04 01:43:56;;;;;;;11.47;6.77;;;;;;;;;;5075793;28;20196;-70
2023/05/04 01:46:22;;;;;;;11.87;6.67;;;;;;;;;;5075438;28;20181;-68
2023/05/04 01:48:48;;;;;;;10.20;6.07;;;;;;;;;;5075164;28;20194;-68
2023/05/04 01:51:14;;;;;;;8.30;6.70;;;;;;;;;;5075037;28;20209;-68
2023/05/04 01:53:40;;;;;;;11.30;6.93;;;;;;;;;;5074833;28;20255;-68
2023/05/04 01:56:06;;;;;;;10.00;6.43;;;;;;;;;;5056857;28;20240;-68
2023/05/04 01:58:32;;;;;;;8.93;6.77;;;;;;;;;;5074870;28;20644;-68
2023/05/04 02:00:58;;;;;;;11.37;7.43;;;;;;;;;;5075065;28;20188;-67
2023/05/04 02:03:25;;;;;;;22.87;7.80;;;;;;;;;;5074694;28;20554;-67
2023/05/04 02:05:51;;;;;;;10.47;6.67;;;;;;;;;;5074679;28;20210;-68
2023/05/04 02:08:17;;;;;;;8.93;6.43;;;;;;;;;;5056711;28;20648;-67
2023/05/04 02:10:43;;;;;;;12.77;7.20;;;;;;;;;;5074649;28;20212;-67
2023/05/04 02:13:09;;;;;;;9.70;6.73;;;;;;;;;;5074876;28;20605;-67
2023/05/04 02:15:35;;;;;;;9.97;6.77;;;;;;;;;;5074669;28;20185;-68
2023/05/04 02:18:01;;;;;;;12.37;7.33;;;;;;;;;;5074464;28;20196;-68
2023/05/04 02:20:27;;;;;;;16.23;7.67;;;;;;;;;;5074452;28;20170;-68
2023/05/04 02:22:53;;;;;;;15.07;7.37;;;;;;;;;;5074415;28;20655;-68
2023/05/04 02:25:19;;;;;;;15.67;7.60;;;;;;;;;;5074309;28;20822;-68
2023/05/04 02:27:45;;;;;;;10.77;7.10;;;;;;;;;;5074245;28;20209;-67
2023/05/04 02:30:11;;;;;;;12.57;7.20;;;;;;;;;;5074386;28;20177;-68
2023/05/04 02:32:37;;;;;;;10.93;7.07;;;;;;;;;;5075104;28;20607;-67
2023/05/04 02:35:03;;;;;;;12.17;7.03;;;;;;;;;;5056058;28;20292;-67
2023/05/04 02:37:29;;;;;;;10.57;6.87;;;;;;;;;;5074038;28;20265;-67
2023/05/04 02:39:55;;;;;;;11.70;7.70;;;;;;;;;;5073933;28;20202;-67
2023/05/04 02:42:21;;;;;;;12.53;7.50;;;;;;;;;;5056130;28;20180;-67
2023/05/04 02:44:47;;;;;;;14.83;7.60;;;;;;;;;;5073737;28;20193;-68
2023/05/04 02:47:13;;;;;;;15.43;6.90;;;;;;;;;;5073786;28;20185;-67
2023/05/04 02:49:39;;;;;;;13.63;7.90;;;;;;;;;;5074042;28;20198;-68
2023/05/04 02:52:05;;;;;;;15.07;7.63;;;;;;;;;;5073750;28;20679;-68
2023/05/04 02:54:31;;;;;;;10.67;7.00;;;;;;;;;;5073869;28;20240;-69
2023/05/04 02:56:57;;;;;;;12.10;7.67;;;;;;;;;;5056394;28;20184;-67
2023/05/04 02:59:23;;;;;;;13.37;7.20;;;;;;;;;;5074436;28;20170;-67
2023/05/04 03:01:49;;;;;;;11.00;7.17;;;;;;;;;;5074585;28;20230;-68
2023/05/04 03:04:15;;;;;;;11.07;6.73;;;;;;;;;;5074048;28;20193;-67
2023/05/04 03:06:41;;;;;;;11.50;7.50;;;;;;;;;;5056840;28;20182;-68
2023/05/04 03:09:08;;;;;;;12.97;7.90;;;;;;;;;;5056825;28;20178;-67
2023/05/04 03:11:34;;;;;;;9.53;8.50;;;;;;;;;;5074275;28;20213;-67
2023/05/04 03:14:00;;;;;;;12.23;7.97;;;;;;;;;;5056037;28;20197;-68
2023/05/04 03:16:26;;;;;;;11.53;7.93;;;;;;;;;;5074373;28;20654;-68
2023/05/04 03:18:52;;;;;;;12.63;7.77;;;;;;;;;;5073971;28;20266;-68
2023/05/04 03:21:18;;;;;;;13.30;8.40;;;;;;;;;;5090521;22;20687;-70
2023/05/04 03:23:44;;;;;;;13.53;7.40;;;;;;;;;;5036278;28;20245;-70
2023/05/04 03:26:10;;;;;;;13.90;8.13;;;;;;;;;;5053594;28;20206;-69
2023/05/04 03:28:36;;;;;;;12.20;8.20;;;;;;;;;;5053243;28;20174;-70
2023/05/04 03:31:02;;;;;;;13.37;7.20;;;;;;;;;;5035423;28;20198;-70
2023/05/04 03:33:28;;;;;;;10.87;7.90;;;;;;;;;;5053450;28;20202;-70
2023/05/04 03:35:54;;;;;;;12.97;7.37;;;;;;;;;;5053153;28;20177;-70
2023/05/04 03:38:20;;;;;;;15.10;8.93;;;;;;;;;;5053177;28;20227;-70
2023/05/04 03:40:46;;;;;;;13.40;8.03;;;;;;;;;;5052643;28;20629;-70
2023/05/04 03:43:12;;;;;;;9.83;7.10;;;;;;;;;;5053334;28;20201;-70
2023/05/04 03:45:38;;;;;;;11.03;7.70;;;;;;;;;;5053237;28;20233;-70
2023/05/04 03:48:04;;;;;;;12.37;8.40;;;;;;;;;;5035162;28;20232;-70
2023/05/04 03:50:30;;;;;;;11.80;7.30;;;;;;;;;;5035219;28;20182;-69
2023/05/04 03:52:56;;;;;;;12.10;7.73;;;;;;;;;;5053250;28;20737;-69
2023/05/04 03:55:22;;;;;;;15.00;7.70;;;;;;;;;;5035430;28;20742;-69
2023/05/04 03:57:48;;;;;;;11.43;8.27;;;;;;;;;;5053201;28;20704;-69
2023/05/04 04:00:15;;;;;;;11.03;7.93;;;;;;;;;;5035348;28;20269;-70
2023/05/04 04:02:41;;;;;;;16.27;8.37;;;;;;;;;;5052836;28;20202;-70
2023/05/04 04:05:07;;;;;;;17.37;8.40;;;;;;;;;;5052930;28;20236;-70
2023/05/04 04:07:33;;;;;;;15.30;8.17;;;;;;;;;;5052900;28;20189;-70
2023/05/04 04:09:59;;;;;;;13.43;8.10;;;;;;;;;;5034915;28;20244;-70
2023/05/04 04:12:25;;;;;;;13.33;7.87;;;;;;;;;;5052844;28;20616;-70
2023/05/04 04:14:51;;;;;;;12.93;8.00;;;;;;;;;;5053923;28;20223;-69
2023/05/04 04:17:17;;;;;;;18.87;8.93;;;;;;;;;;5053071;28;20166;-70
2023/05/04 04:19:43;;;;;;;15.23;8.40;;;;;;;;;;5052991;28;20197;-70
2023/05/04 04:22:09;;;;;;;14.93;8.53;;;;;;;;;;5034667;28;20763;-71
2023/05/04 04:24:35;;;;;;;13.57;8.60;;;;;;;;;;5034729;28;20236;-70
2023/05/04 04:27:01;;;;;;;14.80;8.50;;;;;;;;;;5034942;28;20566;-69
2023/05/04 04:29:27;;;;;;;14.43;8.80;;;;;;;;;;5034729;28;20188;-70
2023/05/04 04:31:53;;;;;;;13.70;9.00;;;;;;;;;;5052679;28;20199;-70
2023/05/04 04:34:19;;;;;;;12.50;8.20;;;;;;;;;;5053120;28;20198;-70
2023/05/04 04:36:45;;;;;;;22.97;9.70;;;;;;;;;;5052706;28;20175;-70
2023/05/04 04:39:11;;;;;;;14.93;9.20;;;;;;;;;;5034696;28;20186;-70
2023/05/04 04:41:37;;;;;;;18.60;9.40;;;;;;;;;;5034637;28;20256;-71
2023/05/04 04:44:03;;;;;;;21.67;9.73;;;;;;;;;;5052726;28;20618;-69
2023/05/04 04:46:29;;;;;;;21.53;8.83;;;;;;;;;;5034641;28;20274;-70
2023/05/04 04:48:56;;;;;;;19.90;8.77;;;;;;;;;;5052535;28;20189;-70
2023/05/04 04:51:22;;;;;;;14.73;8.43;;;;;;;;;;5034626;28;20207;-70
2023/05/04 04:53:50;;;;;;;16.87;8.33;;;;;;;;;;5037803;28;20203;-70
2023/05/04 04:56:17;;;;;;;21.90;9.40;;;;;;;;;;5038085;28;20560;-70
2023/05/04 04:58:43;;;;;;;15.40;9.00;;;;;;;;;;5056168;28;20664;-70
2023/05/04 05:01:09;;;;;;;18.00;9.70;;;;;;;;;;5038028;28;20232;-69
2023/05/04 05:03:35;;;;;;;13.70;8.97;;;;;;;;;;5038462;28;20604;-70
2023/05/04 05:06:01;;;;;;;14.03;8.00;;;;;;;;;;5039789;28;20212;-70
2023/05/04 05:08:27;;;;;;;15.50;9.53;;;;;;;;;;5038097;28;20182;-70
2023/05/04 05:10:53;;;;;;;19.20;9.20;;;;;;;;;;5037932;28;20297;-70
2023/05/04 05:13:19;;;;;;;16.50;8.97;;;;;;;;;;5055908;28;20617;-70
2023/05/04 05:15:45;;;;;;;13.13;8.03;;;;;;;;;;5057100;28;20698;-70
2023/05/04 05:18:11;;;;;;;14.63;9.03;;;;;;;;;;5040674;28;20182;-70
2023/05/04 05:20:37;;;;;;;18.00;8.40;;;;;;;;;;5040405;28;20209;-70
2023/05/04 05:23:03;;;;;;;15.33;7.30;;;;;;;;;;5039604;28;20269;-70
2023/05/04 05:25:29;;;;;;;13.17;7.83;;;;;;;;;;5038034;28;20183;-68
2023/05/04 05:27:55;;;;;;;14.73;7.97;;;;;;;;;;5037734;28;20194;-68
2023/05/04 05:30:21;;;;;;;12.90;7.83;;;;;;;;;;5055734;28;20178;-69
2023/05/04 05:32:47;;;;;;;15.80;7.83;;;;;;;;;;5037966;28;20259;-67
2023/05/04 05:35:13;;;;;;;13.83;7.87;;;;;;;;;;5038228;28;20762;-68
2023/05/04 05:37:39;;;;;;;17.10;7.63;;;;;;;;;;5037809;28;20178;-68
2023/05/04 05:40:06;;;;;;;15.37;7.90;;;;;;;;;;5055700;28;20181;-68
2023/05/04 05:42:32;;;;;;;14.93;8.07;;;;;;;;;;5055475;28;20187;-68
2023/05/04 05:45:00;;;;;;;15.03;8.03;;;;;;;;;;5037439;28;20224;-68
2023/05/04 05:47:26;;;;;;;14.57;8.07;;;;;;;;;;5055375;28;20224;-68
2023/05/04 05:49:53;;;;;;;12.10;7.57;;;;;;;;;;5055205;28;20178;-68
2023/05/04 05:52:19;;;;;;;18.40;7.90;;;;;;;;;;5037121;28;20202;-68
2023/05/04 05:54:45;;;;;;;14.27;7.70;;;;;;;;;;5055598;28;20289;-68
2023/05/04 05:57:11;;;;;;;15.03;8.70;;;;;;;;;;5038077;28;20722;-68
2023/05/04 05:59:37;;;;;;;16.10;8.20;;;;;;;;;;5055818;28;20174;-68
2023/05/04 06:02:03;;;;;;;18.43;8.13;;;;;;;;;;5054901;28;20296;-68
2023/05/04 06:04:29;;;;;;;19.43;8.43;;;;;;;;;;5054726;28;20230;-68
2023/05/04 06:06:55;;;;;;;13.80;9.07;;;;;;;;;;5036977;28;20224;-69
2023/05/04 06:09:21;;;;;;;19.43;8.50;;;;;;;;;;5036852;28;20205;-68
2023/05/04 06:11:47;;;;;;;16.43;9.43;;;;;;;;;;5054557;28;20203;-68
2023/05/04 06:14:13;;;;;;;16.10;9.27;;;;;;;;;;5036863;28;20202;-68
2023/05/04 06:16:39;;;;;;;21.60;10.13;;;;;;;;;;5036668;28;20633;-68
2023/05/04 06:19:05;;;;;;;24.83;10.53;;;;;;;;;;5036951;28;20189;-68
2023/05/04 06:21:31;;;;;;;17.90;9.00;;;;;;;;;;5055111;28;20217;-69
2023/05/04 06:23:57;;;;;;;22.73;9.10;;;;;;;;;;5038500;28;20183;-68
2023/05/04 06:26:23;;;;;;;17.83;9.03;;;;;;;;;;5054418;28;20236;-68
2023/05/04 06:28:49;;;;;;;17.60;9.13;;;;;;;;;;5036421;28;20296;-68
2023/05/04 06:31:15;;;;;;;20.47;8.93;;;;;;;;;;5036321;28;20684;-68
2023/05/04 06:33:41;;;;;;;23.30;8.73;;;;;;;;;;5036326;28;20582;-70
2023/05/04 06:36:07;;;;;;;15.67;8.67;;;;;;;;;;5054114;28;20178;-69
2023/05/04 06:38:33;;;;;;;17.37;9.50;;;;;;;;;;5054168;28;20179;-69
2023/05/04 06:40:59;;;;;;;22.90;9.73;;;;;;;;;;5036136;28;20290;-68
2023/05/04 06:43:25;;;;;;;25.27;11.37;;;;;;;;;;5054249;28;20196;-69
2023/05/04 06:45:51;;;;;;;17.17;9.33;;;;;;;;;;5054018;28;20184;-70
2023/05/04 06:48:17;;;;;;;24.50;10.83;;;;;;;;;;5036648;28;20269;-69
2023/05/04 06:50:44;;;;;;;20.07;9.87;;;;;;;;;;5036045;28;20210;-70
2023/05/04 06:53:10;;;;;;;21.00;9.03;;;;;;;;;;5054099;28;20645;-70
2023/05/04 06:55:36;;;;;;;18.63;9.50;;;;;;;;;;5036686;28;20186;-69
2023/05/04 06:58:03;;;;;;;17.90;8.67;;;;;;;;;;5054563;28;20181;-69
2023/05/04 07:00:29;;;;;;;15.43;8.27;;;;;;;;;;5035896;28;20236;-70
2023/05/04 07:02:55;;;;;;;17.87;7.90;;;;;;;;;;5035962;28;20178;-70
2023/05/04 07:05:21;;;;;;;12.60;8.00;;;;;;;;;;5035928;28;20186;-70
2023/05/04 07:07:48;;;;;;;18.03;8.20;;;;;;;;;;5035920;28;20174;-70
2023/05/04 07:10:14;;;;;;;13.73;6.80;;;;;;;;;;5035790;28;20571;-70
2023/05/04 07:12:40;;;;;;;17.97;7.97;;;;;;;;;;5036321;28;20194;-70
2023/05/04 07:15:07;;;;;;;18.40;8.20;;;;;;;;;;5035061;28;20178;-70
2023/05/04 07:17:33;;;;;;;17.87;8.17;;;;;;;;;;5035554;28;20193;-70
2023/05/04 07:20:03;;;;;;;19.13;8.37;;;;;;;;;;5053386;28;20663;-70
2023/05/04 07:22:30;;;;;;;20.30;9.33;;;;;;;;;;5053194;28;20202;-70
2023/05/04 07:24:56;;;;;;;15.60;7.60;;;;;;;;;;5053725;28;20187;-70
2023/05/04 07:27:23;;;;;;;14.30;8.23;;;;;;;;;;5053482;28;20175;-70
2023/05/04 07:29:52;;;;;;;18.37;8.27;;;;;;;;;;5035526;28;20175;-70
2023/05/04 07:32:18;;;;;;;25.20;8.33;;;;;;;;;;5035290;28;20676;-70
2023/05/04 07:34:44;;;;;;;15.70;6.93;;;;;;;;;;5053090;28;20266;-70
2023/05/04 07:37:11;;;;;;;15.53;8.27;;;;;;;;;;5035855;28;20228;-70
2023/05/04 07:39:37;;;;;;;16.93;8.43;;;;;;;;;;5054126;28;20685;-70
2023/05/04 07:42:03;;;;;;;25.00;8.70;;;;;;;;;;5053465;28;20286;-70
2023/05/04 07:44:30;;;;;;;14.50;8.03;;;;;;;;;;5053119;28;20262;-70
2023/05/04 07:46:57;;;;;;;20.60;8.30;;;;;;;;;;5035461;28;20233;-70
2023/05/04 07:49:23;;;;;;;15.53;7.53;;;;;;;;;;5053411;28;20182;-70
2023/05/04 07:51:49;;;;;;;16.83;8.03;;;;;;;;;;5053340;28;20562;-70
2023/05/04 07:54:15;;;;;;;16.97;8.03;;;;;;;;;;5035289;28;20252;-70
2023/05/04 07:56:41;;;;;;;14.50;7.23;;;;;;;;;;5038891;28;20174;-70
2023/05/04 07:59:07;;;;;;;15.63;7.83;;;;;;;;;;5053317;28;20179;-70
2023/05/04 08:01:33;;;;;;;10.93;7.17;;;;;;;;;;5052821;28;20202;-70
2023/05/04 08:03:59;;;;;;;14.13;8.50;;;;;;;;;;5053213;28;20174;-70
2023/05/04 08:06:26;;;;;;;12.90;7.47;;;;;;;;;;5052937;28;20643;-70
2023/05/04 08:08:52;;;;;;;19.83;7.50;;;;;;;;;;5052985;28;20179;-70
2023/05/04 08:11:18;;;;;;;17.13;7.53;;;;;;;;;;5035015;28;20208;-70
2023/05/04 08:13:48;;;;;;;13.90;7.70;;;;;;;;;;5053336;28;20259;-70
2023/05/04 08:16:14;;;;;;;13.17;8.00;;;;;;;;;;5052941;28;20182;-70
2023/05/04 08:18:40;;;;;;;16.80;7.53;;;;;;;;;;5035049;28;20654;-70
2023/05/04 08:21:06;;;;;;;20.83;7.33;;;;;;;;;;5052821;28;20210;-70
2023/05/04 08:23:32;;;;;;;16.47;7.60;;;;;;;;;;5052884;28;20178;-70
2023/05/04 08:26:02;;;;;;;19.00;7.47;;;;;;;;;;5054010;28;20671;-69
2023/05/04 08:28:29;;;;;;;18.13;7.77;;;;;;;;;;5038730;28;20236;-70
2023/05/04 08:30:56;;;;;;;17.03;8.50;;;;;;;;;;5039479;28;20202;-70
2023/05/04 08:33:22;;;;;;;17.00;7.70;;;;;;;;;;5038781;28;20210;-70
2023/05/04 08:35:48;;;;;;;15.80;7.90;;;;;;;;;;5038698;28;20183;-70
2023/05/04 08:38:14;;;;;;;13.60;7.40;;;;;;;;;;5038784;28;20182;-70
2023/05/04 08:40:41;;;;;;;17.33;8.33;;;;;;;;;;5056218;28;20186;-70
2023/05/04 08:43:07;;;;;;;13.20;8.43;;;;;;;;;;5056496;28;20532;-70
2023/05/04 08:45:37;;;;;;;19.83;8.33;;;;;;;;;;5038518;28;20193;-70
2023/05/04 08:48:03;;;;;;;13.07;7.83;;;;;;;;;;5056369;28;20194;-70
2023/05/04 08:50:29;;;;;;;24.27;8.07;;;;;;;;;;5056220;28;20178;-70
2023/05/04 08:52:59;;;;;;;16.50;7.10;;;;;;;;;;5038355;28;20210;-70
2023/05/04 08:55:25;;;;;;;15.40;7.33;;;;;;;;;;5056637;28;20167;-70
2023/05/04 08:57:52;;;;;;;15.30;7.47;;;;;;;;;;5038342;28;20240;-70
2023/05/04 09:00:18;;;;;;;15.43;6.73;;;;;;;;;;5056144;28;20656;-70
2023/05/04 09:02:45;;;;;;;12.70;6.37;;;;;;;;;;5038078;28;20747;-70
2023/05/04 09:05:11;;;;;;;15.70;6.23;;;;;;;;;;5038248;28;20213;-70
2023/05/04 09:07:37;;;;;;;9.87;6.33;;;;;;;;;;5038000;28;20225;-70
2023/05/04 09:10:03;;;;;;;13.00;6.13;;;;;;;;;;5056352;28;20178;-70
2023/05/04 09:12:30;;;;;;;9.80;5.60;;;;;;;;;;5038301;28;20252;-69
2023/05/04 09:14:57;;;;;;;10.53;5.80;;;;;;;;;;5056411;28;20210;-71
2023/05/04 09:17:28;;;;;;;9.70;5.83;;;;;;;;;;5038223;28;20791;-70
2023/05/04 09:20:00;;;;;;;12.53;6.10;;;;;;;;;;5056498;28;20613;-68
2023/05/04 09:22:27;;;;;;;12.77;6.70;;;;;;;;;;5037922;28;20589;-69
2023/05/04 09:24:53;;;;;;;10.30;6.27;;;;;;;;;;5038949;28;20302;-68
2023/05/04 09:27:19;;;;;;;11.07;5.80;;;;;;;;;;5056201;28;20178;-69
2023/05/04 09:29:54;;;;;;;10.67;5.33;;;;;;;;;;5095120;22;20233;-66
2023/05/04 09:32:20;;;;;;;9.23;5.20;;;;;;;;;;5075615;28;20173;-66
2023/05/04 09:34:53;;;;;;;10.40;5.47;;;;;;;;;;5057383;28;20197;-66
2023/05/04 09:37:20;;;;;;;8.05;5.68;;;;;;;;;;5073957;28;20457;-66
2023/05/04 09:39:51;;;;;;;10.40;5.10;;;;;;;;;;5055889;28;20452;-66
2023/05/04 09:42:17;;;;;;;8.30;6.07;;;;;;;;;;5056073;28;20391;-66
2023/05/04 09:44:44;;;;;;;12.65;8.30;;;;;;;;;;5056160;28;20893;-66
2023/05/04 09:47:10;;;;;;;15.80;10.60;;;;;;;;;;5075252;28;20178;-66
2023/05/04 09:49:36;;;;;;;10.53;7.80;;;;;;;;;;5057215;28;20209;-66
2023/05/04 09:52:04;;;;;;;11.75;6.85;;;;;;;;;;5074239;28;20383;-66
2023/05/04 09:54:33;;;;;;;7.87;5.43;;;;;;;;;;5075366;28;20202;-65
2023/05/04 09:57:05;;;;;;;7.60;5.32;;;;;;;;;;5055960;28;20395;-65
2023/05/04 09:59:32;;;;;;;13.17;4.80;;;;;;;;;;5056881;28;20229;-65
2023/05/04 10:01:58;;;;;;;9.30;4.50;;;;;;;;;;5056956;28;20261;-66
2023/05/04 10:04:24;;;;;;;7.28;4.75;;;;;;;;;;5055745;28;20424;-65
2023/05/04 10:06:51;;;;;;;6.30;4.47;;;;;;;;;;5056987;28;20173;-64
2023/05/04 10:09:18;;;;;;;9.57;4.80;;;;;;;;;;5056902;28;20212;-65
2023/05/04 10:11:44;;;;;;;5.97;4.80;;;;;;;;;;5074989;28;20177;-65
2023/05/04 10:14:10;;;;;;;5.38;4.60;;;;;;;;;;5073716;28;20407;-65
2023/05/04 10:16:41;;;;;;;8.48;4.70;;;;;;;;;;5073482;28;20874;-66
2023/05/04 10:19:10;;;;;;;5.33;4.47;;;;;;;;;;5056720;28;20292;-66
2023/05/04 10:21:55;;;;;;;5.33;4.80;;;;;;;;;;5056635;28;20182;-65
2023/05/04 10:24:44;;;;;;;5.70;4.20;;;;;;;;;;5057793;28;20174;-66
2023/05/04 10:27:13;;;;;;;8.70;4.30;;;;;;;;;;5056614;28;20659;-67
2023/05/04 10:29:39;;;;;;;10.83;5.37;;;;;;;;;;5074218;28;20217;-67
2023/05/04 10:32:06;;;;;;;9.57;4.50;;;;;;;;;;5056408;28;20182;-67
2023/05/04 10:34:33;;;;;;;6.87;4.57;;;;;;;;;;5056275;28;20232;-66
2023/05/04 10:37:00;;;;;;;9.77;5.00;;;;;;;;;;5074411;28;20174;-68
2023/05/04 10:39:27;;;;;;;10.27;4.80;;;;;;;;;;5074114;28;20190;-66
2023/05/04 10:41:59;;;;;;;9.20;4.40;;;;;;;;;;5074264;28;20277;-67
2023/05/04 10:44:26;;;;;;;6.50;4.30;;;;;;;;;;5074202;28;20177;-66
2023/05/04 10:46:59;;;;;;;12.77;4.27;;;;;;;;;;5056118;28;20185;-67
2023/05/04 10:49:25;;;;;;;11.57;4.57;;;;;;;;;;5073120;28;20197;-67
2023/05/04 10:52:03;;;;;;;11.77;4.43;;;;;;;;;;5074408;28;20180;-68
2023/05/04 10:54:29;;;;;;;5.77;4.40;;;;;;;;;;5055812;28;20236;-66
2023/05/04 10:57:02;;;;;;;5.03;4.00;;;;;;;;;;5056030;28;20208;-66
2023/05/04 10:59:28;;;;;;;7.77;4.10;;;;;;;;;;5073991;28;20281;-66
2023/05/04 11:01:54;;;;;;;6.23;4.70;;;;;;;;;;5073787;28;20205;-67
2023/05/04 11:04:21;;;;;;;7.23;4.93;;;;;;;;;;5074053;28;20182;-68
2023/05/04 11:07:00;;;;;;;6.27;3.97;;;;;;;;;;5074396;28;20307;-69
2023/05/04 11:09:27;;;;;;;5.03;4.00;;;;;;;;;;5055949;28;20205;-67
2023/05/04 11:11:53;;;;;;;9.63;4.20;;;;;;;;;;5055890;28;20669;-67
2023/05/04 11:14:26;;;;;;;8.07;4.57;;;;;;;;;;5073901;28;20654;-66
2023/05/04 11:16:53;;;;;;;6.00;3.97;;;;;;;;;;5055483;28;20173;-66
2023/05/04 11:19:20;;;;;;;6.40;4.20;;;;;;;;;;5055583;28;20194;-67
2023/05/04 11:21:46;;;;;;;5.43;4.30;;;;;;;;;;5073555;28;20174;-66
2023/05/04 11:24:12;;;;;;;5.23;3.90;;;;;;;;;;5073584;28;20544;-66
2023/05/04 11:26:46;;;;;;;7.50;4.07;;;;;;;;;;5073704;28;20173;-66
2023/05/04 11:29:12;;;;;;;4.60;3.80;;;;;;;;;;5055396;28;20698;-66
2023/05/04 11:31:38;;;;;;;9.03;4.00;;;;;;;;;;5055491;28;20275;-66
2023/05/04 11:34:06;;;;;;;4.90;3.63;;;;;;;;;;5055455;28;20255;-66
2023/05/04 11:36:37;;;;;;;6.33;3.80;;;;;;;;;;5055826;28;20177;-66
2023/05/04 11:39:05;;;;;;;13.57;4.37;;;;;;;;;;5055239;28;20220;-67
2023/05/04 11:41:31;;;;;;;3.93;3.33;;;;;;;;;;5074291;28;20670;-65
2023/05/04 11:43:59;;;;;;;6.53;3.30;;;;;;;;;;5073119;28;20647;-67
2023/05/04 11:46:25;;;;;;;;;;;;;;;;;;5055790;28;20513;-67
2023/05/04 11:48:50;;;;;;;;;;;;;;;;;;5073754;28;19904;-67
2023/05/04 11:51:17;;;;;;;;;;;;;;;;;;5056454;28;20559;-68
2023/05/04 11:53:42;;;;;;;;;;;;;;;;;;5073657;28;19909;-67
2023/05/04 11:56:08;;;;;;;5.73;3.10;;;;;;;;;;5073343;28;20536;-68
2023/05/04 11:58:34;;;;;;;6.70;3.70;;;;;;;;;;5053917;28;20478;-66
2023/05/04 12:01:00;;;;;;;5.43;3.70;;;;;;;;;;5073356;28;20425;-66
2023/05/04 12:03:28;;;;;;;5.67;4.03;;;;;;;;;;5076616;28;20375;-66
2023/05/04 12:05:55;;;;;;;6.05;3.80;;;;;;;;;;5058261;28;20395;-66
2023/05/04 12:08:30;;;;;;;5.45;3.85;;;;;;;;;;5076129;28;20383;-67
2023/05/04 12:11:15;;;;;;;6.57;3.40;;;;;;;;;;5057777;28;20404;-67
2023/05/04 12:13:42;;;;;;;5.88;3.30;;;;;;;;;;5076154;28;20403;-67
2023/05/04 12:16:18;;;;;;;3.67;3.20;;;;;;;;;;5075731;28;20417;-68
2023/05/04 12:18:44;;;;;;;5.53;3.37;;;;;;;;;;5075987;28;20776;-67
2023/05/04 12:21:11;;;;;;;5.60;3.75;;;;;;;;;;5075913;28;20421;-68
2023/05/04 12:23:38;;;;;;;5.82;3.53;;;;;;;;;;5075535;28;20429;-68
2023/05/04 12:26:04;;;;;;;6.15;3.47;;;;;;;;;;5075608;28;20466;-67
2023/05/04 12:28:30;;;;;;;7.68;3.17;;;;;;;;;;5057359;28;20431;-68
2023/05/04 12:30:56;;;;;;;6.72;3.55;;;;;;;;;;5076338;28;20450;-68
2023/05/04 12:33:23;;;;;;;8.27;3.97;;;;;;;;;;5075386;28;20400;-68
2023/05/04 12:35:48;;;;;;;5.37;3.40;;;;;;;;;;5057420;28;20387;-68
2023/05/04 12:38:14;;;;;;;6.00;3.40;;;;;;;;;;5075142;28;20387;-67
2023/05/04 12:40:42;;;;;;;8.10;3.50;;;;;;;;;;5075480;28;20429;-68
2023/05/04 12:43:09;;;;;;;7.78;3.13;;;;;;;;;;5075519;28;20388;-68
2023/05/04 12:45:35;;;;;;;5.65;3.75;;;;;;;;;;5058489;28;20418;-68
2023/05/04 12:48:01;;;;;;;4.22;3.33;;;;;;;;;;5057139;28;20384;-68
2023/05/04 12:50:27;;;;;;;5.28;3.30;;;;;;;;;;5075160;28;20379;-68
2023/05/04 12:52:53;;;;;;;5.00;3.17;;;;;;;;;;5057349;28;20931;-68
2023/05/04 12:55:20;;;;;;;5.72;3.50;;;;;;;;;;5075380;28;20742;-67
2023/05/04 12:57:46;;;;;;;7.17;3.50;;;;;;;;;;5075490;28;20746;-68
2023/05/04 13:00:12;;;;;;;6.73;3.73;;;;;;;;;;5057390;28;20392;-68
2023/05/04 13:02:38;;;;;;;4.53;2.85;;;;;;;;;;5056966;28;20418;-68
2023/05/04 13:05:04;;;;;;;5.88;2.97;;;;;;;;;;5075294;28;20371;-67
2023/05/04 13:07:31;;;;;;;3.95;2.90;;;;;;;;;;5074917;28;20376;-68
2023/05/04 13:09:56;;;;;;;4.30;2.97;;;;;;;;;;5057296;28;20456;-68
2023/05/04 13:12:22;;;;;;;5.32;3.30;;;;;;;;;;5074389;28;20878;-68
2023/05/04 13:14:49;;;;;;;6.82;3.00;;;;;;;;;;5056254;28;20761;-67
2023/05/04 13:17:17;;;;;;;9.80;3.20;;;;;;;;;;5076049;28;20181;-67
2023/05/04 13:19:43;;;;;;;5.72;3.42;;;;;;;;;;5074671;28;20387;-68
2023/05/04 13:22:08;;;;;;;7.47;3.30;;;;;;;;;;5075005;28;20386;-68
2023/05/04 13:24:34;;;;;;;9.25;3.40;;;;;;;;;;5074871;28;20390;-68
2023/05/04 13:27:01;;;;;;;4.43;2.87;;;;;;;;;;5074401;28;20386;-68
2023/05/04 13:29:27;;;;;;;9.20;3.20;;;;;;;;;;5075196;28;20402;-67
2023/05/04 13:31:53;;;;;;;7.23;2.90;;;;;;;;;;5058216;28;20197;-67
2023/05/04 13:34:19;;;;;;;4.37;2.77;;;;;;;;;;5075584;28;20248;-68
2023/05/04 13:36:45;;;;;;;7.83;3.00;;;;;;;;;;5057925;28;20663;-68
2023/05/04 13:39:11;;;;;;;5.27;3.37;;;;;;;;;;5075428;28;20221;-65
2023/05/04 13:41:37;;;;;;;3.80;3.10;;;;;;;;;;5075509;28;20181;-65
2023/05/04 13:44:03;;;;;;;8.77;3.70;;;;;;;;;;5057929;28;20554;-66
2023/05/04 13:46:29;;;;;;;8.37;3.40;;;;;;;;;;5057655;28;20258;-65
2023/05/04 13:48:55;;;;;;;3.20;2.87;;;;;;;;;;5075537;28;20282;-67
2023/05/04 13:51:21;;;;;;;3.47;3.03;;;;;;;;;;5075681;28;20680;-67
2023/05/04 13:53:47;;;;;;;12.02;3.10;;;;;;;;;;5057810;28;20200;-67
2023/05/04 13:56:13;;;;;;;7.93;3.83;;;;;;;;;;5075984;28;20177;-67
2023/05/04 13:58:39;;;;;;;3.45;3.15;;;;;;;;;;5075371;28;20799;-69
2023/05/04 14:01:05;;;;;;;4.00;2.83;;;;;;;;;;5076008;28;20648;-67
2023/05/04 14:03:31;;;;;;;3.35;3.05;;;;;;;;;;5076245;28;20203;-67
2023/05/04 14:05:57;;;;;;;7.80;4.28;;;;;;;;;;5075549;28;20204;-66
2023/05/04 14:08:24;;;;;;;3.80;3.40;;;;;;;;;;5076385;28;20193;-67
2023/05/04 14:10:50;;;;;;;3.88;2.95;;;;;;;;;;5076835;28;20189;-67
2023/05/04 14:13:16;;;;;;;5.43;3.38;;;;;;;;;;5057593;28;20198;-65
2023/05/04 14:15:42;;;;;;;7.22;3.10;;;;;;;;;;5057732;28;20719;-67
2023/05/04 14:18:08;;;;;;;6.97;3.38;;;;;;;;;;5057573;28;20209;-68
2023/05/04 14:20:34;;;;;;;8.07;3.60;;;;;;;;;;5075516;28;20201;-67
2023/05/04 14:23:00;;;;;;;5.30;2.90;;;;;;;;;;5057666;28;20181;-67
2023/05/04 14:25:26;;;;;;;7.35;3.03;;;;;;;;;;5075674;28;20174;-66
2023/05/04 14:27:52;;;;;;;51.88;9.48;;;;;;;;;;5056881;28;20550;-68
2023/05/04 14:30:18;;;;;;;5.13;3.22;;;;;;;;;;5074761;28;20210;-67
2023/05/04 14:32:44;;;;;;;8.65;4.20;;;;;;;;;;5057017;28;20181;-67